sensor_id;sensor_type;location;lat;lon;timestamp;P1;durP1;ratioP1;P2;durP2;ratioP2
8450;SDS011;4262;50.980;13.892;2023-02-21T04:32:15;12.67;;;5.47;;
8450;SDS011;4262;50.980;13.892;2023-02-21T04:34:42;10.73;;;5.10;;
8450;SDS011;4262;50.980;13.892;2023-02-21T04:37:09;11.70;;;5.37;;
8450;SDS011;4262;50.980;13.892;2023-02-21T04:39:36;9.77;;;5.10;;
8450;SDS011;4262;50.980;13.892;2023-02-21T04:42:04;9.37;;;4.33;;
8450;SDS011;4262;50.980;13.892;2023-02-21T04:44:32;11.10;;;5.60;;
8450;SDS011;4262;50.980;13.892;2023-02-21T04:46:59;10.17;;;5.47;;
8450;SDS011;4262;50.980;13.892;2023-02-21T04:49:27;12.30;;;5.60;;
8450;SDS011;4262;50.980;13.892;2023-02-21T04:51:54;15.47;;;5.90;;
8450;SDS011;4262;50.980;13.892;2023-02-21T04:54:22;10.40;;;5.40;;
8450;SDS011;4262;50.980;13.892;2023-02-21T04:56:49;11.50;;;5.10;;
8450;SDS011;4262;50.980;13.892;2023-02-21T04:59:17;12.43;;;5.30;;
8450;SDS011;4262;50.980;13.892;2023-02-21T05:01:44;10.43;;;5.30;;
8450;SDS011;4262;50.980;13.892;2023-02-21T05:04:12;12.03;;;6.23;;
8450;SDS011;4262;50.980;13.892;2023-02-21T05:06:40;11.00;;;5.10;;
8450;SDS011;4262;50.980;13.892;2023-02-21T05:09:07;10.97;;;5.90;;
8450;SDS011;4262;50.980;13.892;2023-02-21T05:11:34;11.00;;;6.47;;
8450;SDS011;4262;50.980;13.892;2023-02-21T05:14:00;10.20;;;5.33;;
8450;SDS011;4262;50.980;13.892;2023-02-21T05:16:27;12.27;;;5.93;;
8450;SDS011;4262;50.980;13.892;2023-02-21T05:18:54;11.50;;;5.90;;
8450;SDS011;4262;50.980;13.892;2023-02-21T05:21:21;14.87;;;6.60;;
8450;SDS011;4262;50.980;13.892;2023-02-21T05:23:49;12.23;;;6.67;;
8450;SDS011;4262;50.980;13.892;2023-02-21T05:26:23;10.97;;;6.37;;
8450;SDS011;4262;50.980;13.892;2023-02-21T05:28:53;10.60;;;5.60;;
8450;SDS011;4262;50.980;13.892;2023-02-21T05:31:21;12.10;;;5.70;;
8450;SDS011;4262;50.980;13.892;2023-02-21T05:33:49;13.10;;;6.23;;
8450;SDS011;4262;50.980;13.892;2023-02-21T05:36:16;10.77;;;5.90;;
8450;SDS011;4262;50.980;13.892;2023-02-21T05:38:43;11.33;;;5.43;;
8450;SDS011;4262;50.980;13.892;2023-02-21T05:41:12;14.23;;;6.60;;
8450;SDS011;4262;50.980;13.892;2023-02-21T05:43:41;13.93;;;6.63;;
8450;SDS011;4262;50.980;13.892;2023-02-21T05:46:14;13.27;;;6.27;;
8450;SDS011;4262;50.980;13.892;2023-02-21T05:48:43;12.27;;;6.00;;
8450;SDS011;4262;50.980;13.892;2023-02-21T05:51:09;10.93;;;6.47;;
8450;SDS011;4262;50.980;13.892;2023-02-21T05:53:36;11.50;;;5.17;;
8450;SDS011;4262;50.980;13.892;2023-02-21T05:56:03;13.07;;;6.40;;
8450;SDS011;4262;50.980;13.892;2023-02-21T05:58:32;12.23;;;6.90;;
8450;SDS011;4262;50.980;13.892;2023-02-21T06:00:59;10.73;;;5.43;;
8450;SDS011;4262;50.980;13.892;2023-02-21T06:03:26;12.00;;;6.20;;
8450;SDS011;4262;50.980;13.892;2023-02-21T06:05:53;12.10;;;5.43;;
8450;SDS011;4262;50.980;13.892;2023-02-21T06:08:20;14.20;;;7.00;;
8450;SDS011;4262;50.980;13.892;2023-02-21T06:10:47;14.50;;;7.23;;
8450;SDS011;4262;50.980;13.892;2023-02-21T06:13:15;15.17;;;7.37;;
8450;SDS011;4262;50.980;13.892;2023-02-21T06:15:43;15.57;;;7.30;;
8450;SDS011;4262;50.980;13.892;2023-02-21T06:18:11;13.30;;;7.30;;
8450;SDS011;4262;50.980;13.892;2023-02-21T06:20:38;13.17;;;6.90;;
8450;SDS011;4262;50.980;13.892;2023-02-21T06:23:05;14.73;;;7.53;;
8450;SDS011;4262;50.980;13.892;2023-02-21T06:25:31;13.60;;;6.50;;
8450;SDS011;4262;50.980;13.892;2023-02-21T06:27:58;13.83;;;6.60;;
8450;SDS011;4262;50.980;13.892;2023-02-21T06:30:25;14.60;;;7.13;;
8450;SDS011;4262;50.980;13.892;2023-02-21T06:32:53;13.77;;;7.00;;
8450;SDS011;4262;50.980;13.892;2023-02-21T06:35:20;14.83;;;7.63;;
8450;SDS011;4262;50.980;13.892;2023-02-21T06:37:47;14.33;;;7.67;;
8450;SDS011;4262;50.980;13.892;2023-02-21T06:40:13;14.77;;;7.73;;
8450;SDS011;4262;50.980;13.892;2023-02-21T06:42:40;14.10;;;7.30;;
8450;SDS011;4262;50.980;13.892;2023-02-21T06:45:07;16.73;;;7.70;;
8450;SDS011;4262;50.980;13.892;2023-02-21T06:47:34;15.97;;;7.30;;
8450;SDS011;4262;50.980;13.892;2023-02-21T06:50:02;19.77;;;8.63;;
8450;SDS011;4262;50.980;13.892;2023-02-21T06:52:30;19.83;;;8.00;;
8450;SDS011;4262;50.980;13.892;2023-02-21T06:54:58;14.60;;;7.57;;
8450;SDS011;4262;50.980;13.892;2023-02-21T06:57:25;15.83;;;8.40;;
8450;SDS011;4262;50.980;13.892;2023-02-21T06:59:53;15.80;;;8.50;;
8450;SDS011;4262;50.980;13.892;2023-02-21T07:02:20;16.63;;;7.80;;
8450;SDS011;4262;50.980;13.892;2023-02-21T07:04:47;17.90;;;7.90;;
8450;SDS011;4262;50.980;13.892;2023-02-21T07:07:15;14.87;;;8.20;;
8450;SDS011;4262;50.980;13.892;2023-02-21T07:09:42;13.27;;;7.63;;
8450;SDS011;4262;50.980;13.892;2023-02-21T07:12:08;13.20;;;7.30;;
8450;SDS011;4262;50.980;13.892;2023-02-21T07:14:35;14.70;;;7.93;;
8450;SDS011;4262;50.980;13.892;2023-02-21T07:17:02;13.40;;;6.93;;
8450;SDS011;4262;50.980;13.892;2023-02-21T07:19:29;15.37;;;6.90;;
8450;SDS011;4262;50.980;13.892;2023-02-21T07:21:56;16.50;;;8.17;;
8450;SDS011;4262;50.980;13.892;2023-02-21T07:24:26;22.83;;;8.57;;
8450;SDS011;4262;50.980;13.892;2023-02-21T07:26:52;17.00;;;8.17;;
8450;SDS011;4262;50.980;13.892;2023-02-21T07:29:19;15.63;;;8.30;;
8450;SDS011;4262;50.980;13.892;2023-02-21T07:31:48;14.70;;;7.40;;
8450;SDS011;4262;50.980;13.892;2023-02-21T07:34:16;14.00;;;7.97;;
8450;SDS011;4262;50.980;13.892;2023-02-21T07:36:44;14.20;;;7.53;;
8450;SDS011;4262;50.980;13.892;2023-02-21T07:39:11;14.43;;;8.10;;
8450;SDS011;4262;50.980;13.892;2023-02-21T07:41:39;15.10;;;7.70;;
8450;SDS011;4262;50.980;13.892;2023-02-21T07:44:08;14.90;;;7.53;;
8450;SDS011;4262;50.980;13.892;2023-02-21T07:46:35;15.90;;;7.77;;
8450;SDS011;4262;50.980;13.892;2023-02-21T07:49:02;24.60;;;8.60;;
8450;SDS011;4262;50.980;13.892;2023-02-21T07:51:29;17.70;;;8.73;;
8450;SDS011;4262;50.980;13.892;2023-02-21T07:53:56;13.57;;;7.17;;
8450;SDS011;4262;50.980;13.892;2023-02-21T07:56:23;16.73;;;7.90;;
8450;SDS011;4262;50.980;13.892;2023-02-21T07:58:52;15.40;;;7.30;;
8450;SDS011;4262;50.980;13.892;2023-02-21T08:01:21;15.97;;;8.57;;
8450;SDS011;4262;50.980;13.892;2023-02-21T08:03:49;15.13;;;8.90;;
8450;SDS011;4262;50.980;13.892;2023-02-21T08:06:16;18.80;;;8.67;;
8450;SDS011;4262;50.980;13.892;2023-02-21T08:08:43;17.47;;;8.20;;
8450;SDS011;4262;50.980;13.892;2023-02-21T08:11:10;16.50;;;7.73;;
8450;SDS011;4262;50.980;13.892;2023-02-21T08:13:39;16.70;;;9.97;;
8450;SDS011;4262;50.980;13.892;2023-02-21T08:16:07;20.13;;;10.60;;
8450;SDS011;4262;50.980;13.892;2023-02-21T08:18:34;15.93;;;8.47;;
8450;SDS011;4262;50.980;13.892;2023-02-21T08:21:01;14.70;;;7.80;;
8450;SDS011;4262;50.980;13.892;2023-02-21T08:23:29;17.73;;;10.07;;
8450;SDS011;4262;50.980;13.892;2023-02-21T08:25:56;18.80;;;10.33;;
8450;SDS011;4262;50.980;13.892;2023-02-21T08:28:24;18.33;;;9.83;;
8450;SDS011;4262;50.980;13.892;2023-02-21T08:30:50;15.57;;;9.33;;
8450;SDS011;4262;50.980;13.892;2023-02-21T08:33:19;16.87;;;8.70;;
8450;SDS011;4262;50.980;13.892;2023-02-21T08:35:46;17.20;;;8.67;;
8450;SDS011;4262;50.980;13.892;2023-02-21T08:38:13;22.43;;;8.43;;
8450;SDS011;4262;50.980;13.892;2023-02-21T08:40:40;15.33;;;9.07;;
8450;SDS011;4262;50.980;13.892;2023-02-21T08:43:07;17.40;;;7.90;;
8450;SDS011;4262;50.980;13.892;2023-02-21T08:45:33;17.23;;;8.20;;
8450;SDS011;4262;50.980;13.892;2023-02-21T08:48:00;16.10;;;8.20;;
8450;SDS011;4262;50.980;13.892;2023-02-21T08:50:28;14.77;;;8.37;;
8450;SDS011;4262;50.980;13.892;2023-02-21T08:52:55;15.20;;;7.97;;
8450;SDS011;4262;50.980;13.892;2023-02-21T08:55:22;17.70;;;7.67;;
8450;SDS011;4262;50.980;13.892;2023-02-21T08:57:50;16.53;;;8.23;;
8450;SDS011;4262;50.980;13.892;2023-02-21T09:00:21;17.10;;;8.23;;
8450;SDS011;4262;50.980;13.892;2023-02-21T09:02:49;16.87;;;8.90;;
8450;SDS011;4262;50.980;13.892;2023-02-21T09:05:16;18.03;;;8.50;;
8450;SDS011;4262;50.980;13.892;2023-02-21T09:07:48;16.93;;;8.50;;
8450;SDS011;4262;50.980;13.892;2023-02-21T09:10:15;17.70;;;9.13;;
8450;SDS011;4262;50.980;13.892;2023-02-21T09:12:43;18.10;;;8.83;;
8450;SDS011;4262;50.980;13.892;2023-02-21T09:15:13;15.90;;;8.47;;
8450;SDS011;4262;50.980;13.892;2023-02-21T09:17:40;16.80;;;10.00;;
8450;SDS011;4262;50.980;13.892;2023-02-21T09:20:07;14.20;;;8.03;;
8450;SDS011;4262;50.980;13.892;2023-02-21T09:22:37;15.30;;;8.23;;
8450;SDS011;4262;50.980;13.892;2023-02-21T09:25:06;15.63;;;7.27;;
8450;SDS011;4262;50.980;13.892;2023-02-21T09:27:37;15.50;;;9.30;;
8450;SDS011;4262;50.980;13.892;2023-02-21T09:30:06;18.40;;;7.73;;
8450;SDS011;4262;50.980;13.892;2023-02-21T09:32:35;14.00;;;7.20;;
8450;SDS011;4262;50.980;13.892;2023-02-21T09:35:02;14.20;;;7.53;;
8450;SDS011;4262;50.980;13.892;2023-02-21T09:37:30;12.73;;;6.70;;
8450;SDS011;4262;50.980;13.892;2023-02-21T09:39:57;13.90;;;7.07;;
8450;SDS011;4262;50.980;13.892;2023-02-21T09:42:27;16.83;;;7.20;;
8450;SDS011;4262;50.980;13.892;2023-02-21T09:44:57;18.70;;;7.70;;
8450;SDS011;4262;50.980;13.892;2023-02-21T09:47:25;15.37;;;7.60;;
8450;SDS011;4262;50.980;13.892;2023-02-21T09:49:57;14.80;;;8.03;;
8450;SDS011;4262;50.980;13.892;2023-02-21T09:52:29;12.47;;;7.57;;
8450;SDS011;4262;50.980;13.892;2023-02-21T09:55:01;13.37;;;7.40;;
8450;SDS011;4262;50.980;13.892;2023-02-21T09:57:36;15.70;;;6.90;;
8450;SDS011;4262;50.980;13.892;2023-02-21T10:00:05;15.30;;;7.57;;
8450;SDS011;4262;50.980;13.892;2023-02-21T10:02:42;14.63;;;7.27;;
8450;SDS011;4262;50.980;13.892;2023-02-21T10:05:20;14.93;;;7.57;;
8450;SDS011;4262;50.980;13.892;2023-02-21T10:07:56;13.23;;;7.43;;
8450;SDS011;4262;50.980;13.892;2023-02-21T10:10:28;14.40;;;7.03;;
8450;SDS011;4262;50.980;13.892;2023-02-21T10:13:01;14.30;;;7.00;;
8450;SDS011;4262;50.980;13.892;2023-02-21T10:15:35;17.27;;;7.77;;
8450;SDS011;4262;50.980;13.892;2023-02-21T10:18:06;13.93;;;6.47;;
8450;SDS011;4262;50.980;13.892;2023-02-21T10:20:43;16.20;;;7.93;;
8450;SDS011;4262;50.980;13.892;2023-02-21T10:23:14;14.90;;;7.23;;
8450;SDS011;4262;50.980;13.892;2023-02-21T10:25:43;10.93;;;6.00;;
8450;SDS011;4262;50.980;13.892;2023-02-21T10:28:18;15.27;;;7.03;;
8450;SDS011;4262;50.980;13.892;2023-02-21T10:30:47;14.00;;;6.80;;
8450;SDS011;4262;50.980;13.892;2023-02-21T10:33:14;16.70;;;8.17;;
8450;SDS011;4262;50.980;13.892;2023-02-21T10:35:42;12.30;;;6.57;;
8450;SDS011;4262;50.980;13.892;2023-02-21T10:38:09;12.33;;;5.70;;
8450;SDS011;4262;50.980;13.892;2023-02-21T10:40:39;14.67;;;6.93;;
8450;SDS011;4262;50.980;13.892;2023-02-21T10:43:08;12.63;;;7.00;;
8450;SDS011;4262;50.980;13.892;2023-02-21T10:45:40;13.93;;;6.50;;
8450;SDS011;4262;50.980;13.892;2023-02-21T10:48:11;12.13;;;6.37;;
8450;SDS011;4262;50.980;13.892;2023-02-21T10:50:48;14.70;;;7.17;;
8450;SDS011;4262;50.980;13.892;2023-02-21T10:53:24;15.20;;;7.07;;
8450;SDS011;4262;50.980;13.892;2023-02-21T10:58:50;14.93;;;7.47;;
8450;SDS011;4262;50.980;13.892;2023-02-21T11:01:21;15.03;;;7.60;;
8450;SDS011;4262;50.980;13.892;2023-02-21T11:03:58;18.43;;;6.77;;
8450;SDS011;4262;50.980;13.892;2023-02-21T11:06:31;13.63;;;7.40;;
8450;SDS011;4262;50.980;13.892;2023-02-21T11:09:00;12.10;;;5.97;;
8450;SDS011;4262;50.980;13.892;2023-02-21T11:11:31;13.00;;;6.47;;
8450;SDS011;4262;50.980;13.892;2023-02-21T11:17:11;12.53;;;5.90;;
8450;SDS011;4262;50.980;13.892;2023-02-21T11:19:41;13.63;;;6.10;;
8450;SDS011;4262;50.980;13.892;2023-02-21T11:22:17;12.90;;;6.33;;
8450;SDS011;4262;50.980;13.892;2023-02-21T11:24:46;11.37;;;5.60;;
8450;SDS011;4262;50.980;13.892;2023-02-21T11:27:17;13.13;;;6.50;;
8450;SDS011;4262;50.980;13.892;2023-02-21T11:29:46;16.90;;;6.23;;
8450;SDS011;4262;50.980;13.892;2023-02-21T11:32:20;12.80;;;6.40;;
8450;SDS011;4262;50.980;13.892;2023-02-21T11:34:51;16.03;;;7.37;;
8450;SDS011;4262;50.980;13.892;2023-02-21T11:37:26;17.97;;;6.03;;
8450;SDS011;4262;50.980;13.892;2023-02-21T11:39:56;10.90;;;5.40;;
8450;SDS011;4262;50.980;13.892;2023-02-21T11:42:26;15.63;;;6.13;;
8450;SDS011;4262;50.980;13.892;2023-02-21T11:45:13;14.17;;;5.93;;
8450;SDS011;4262;50.980;13.892;2023-02-21T11:47:53;14.10;;;6.87;;
8450;SDS011;4262;50.980;13.892;2023-02-21T11:50:25;14.53;;;6.67;;
8450;SDS011;4262;50.980;13.892;2023-02-21T11:52:59;13.60;;;6.53;;
8450;SDS011;4262;50.980;13.892;2023-02-21T11:55:31;12.97;;;7.20;;
8450;SDS011;4262;50.980;13.892;2023-02-21T11:58:05;14.03;;;7.07;;
8450;SDS011;4262;50.980;13.892;2023-02-21T12:00:45;12.73;;;6.23;;
8450;SDS011;4262;50.980;13.892;2023-02-21T12:03:32;14.70;;;7.23;;
8450;SDS011;4262;50.980;13.892;2023-02-21T12:06:14;12.57;;;5.80;;
8450;SDS011;4262;50.980;13.892;2023-02-21T12:08:47;12.67;;;6.43;;
8450;SDS011;4262;50.980;13.892;2023-02-21T12:11:25;14.90;;;6.60;;
8450;SDS011;4262;50.980;13.892;2023-02-21T12:14:17;10.73;;;5.80;;
8450;SDS011;4262;50.980;13.892;2023-02-21T12:16:54;12.73;;;6.23;;
8450;SDS011;4262;50.980;13.892;2023-02-21T12:19:35;12.63;;;6.20;;
8450;SDS011;4262;50.980;13.892;2023-02-21T12:22:21;16.50;;;7.20;;
8450;SDS011;4262;50.980;13.892;2023-02-21T12:25:04;11.70;;;5.60;;
8450;SDS011;4262;50.980;13.892;2023-02-21T12:27:44;14.77;;;6.57;;
8450;SDS011;4262;50.980;13.892;2023-02-21T12:30:22;13.80;;;6.60;;
8450;SDS011;4262;50.980;13.892;2023-02-21T12:32:57;13.97;;;6.43;;
8450;SDS011;4262;50.980;13.892;2023-02-21T12:36:02;13.93;;;6.77;;
8450;SDS011;4262;50.980;13.892;2023-02-21T12:38:42;16.67;;;7.53;;
8450;SDS011;4262;50.980;13.892;2023-02-21T12:41:27;16.70;;;6.50;;
8450;SDS011;4262;50.980;13.892;2023-02-21T12:44:14;12.43;;;6.13;;
8450;SDS011;4262;50.980;13.892;2023-02-21T12:46:47;11.63;;;5.70;;
8450;SDS011;4262;50.980;13.892;2023-02-21T12:49:20;13.30;;;6.93;;
8450;SDS011;4262;50.980;13.892;2023-02-21T12:51:55;13.37;;;6.63;;
8450;SDS011;4262;50.980;13.892;2023-02-21T12:54:32;14.17;;;7.20;;
8450;SDS011;4262;50.980;13.892;2023-02-21T12:57:04;16.93;;;6.33;;
8450;SDS011;4262;50.980;13.892;2023-02-21T12:59:41;14.27;;;6.63;;
8450;SDS011;4262;50.980;13.892;2023-02-21T13:02:18;14.17;;;7.43;;
8450;SDS011;4262;50.980;13.892;2023-02-21T13:04:53;14.43;;;6.50;;
8450;SDS011;4262;50.980;13.892;2023-02-21T13:07:28;14.20;;;6.80;;
8450;SDS011;4262;50.980;13.892;2023-02-21T13:10:02;15.30;;;7.47;;
8450;SDS011;4262;50.980;13.892;2023-02-21T13:12:35;13.53;;;7.40;;
8450;SDS011;4262;50.980;13.892;2023-02-21T13:15:12;15.27;;;7.40;;
8450;SDS011;4262;50.980;13.892;2023-02-21T13:17:43;15.03;;;7.80;;
8450;SDS011;4262;50.980;13.892;2023-02-21T13:20:17;13.33;;;7.00;;
8450;SDS011;4262;50.980;13.892;2023-02-21T13:22:47;13.10;;;6.97;;
8450;SDS011;4262;50.980;13.892;2023-02-21T13:26:10;13.57;;;6.30;;
8450;SDS011;4262;50.980;13.892;2023-02-21T13:28:54;15.53;;;6.70;;
8450;SDS011;4262;50.980;13.892;2023-02-21T13:31:23;12.63;;;6.20;;
8450;SDS011;4262;50.980;13.892;2023-02-21T13:33:53;12.37;;;6.50;;
8450;SDS011;4262;50.980;13.892;2023-02-21T13:36:23;12.47;;;7.03;;
8450;SDS011;4262;50.980;13.892;2023-02-21T13:38:59;14.57;;;7.20;;
8450;SDS011;4262;50.980;13.892;2023-02-21T13:41:30;14.40;;;6.40;;
8450;SDS011;4262;50.980;13.892;2023-02-21T13:44:03;11.23;;;5.83;;
8450;SDS011;4262;50.980;13.892;2023-02-21T13:49:35;12.30;;;6.43;;
8450;SDS011;4262;50.980;13.892;2023-02-21T14:07:35;12.30;;;6.13;;
8450;SDS011;4262;50.980;13.892;2023-02-21T14:10:13;15.60;;;6.40;;
8450;SDS011;4262;50.980;13.892;2023-02-21T14:12:50;13.33;;;6.20;;
8450;SDS011;4262;50.980;13.892;2023-02-21T14:15:21;11.50;;;5.70;;
8450;SDS011;4262;50.980;13.892;2023-02-21T14:17:49;12.90;;;5.87;;
8450;SDS011;4262;50.980;13.892;2023-02-21T14:20:18;14.17;;;6.53;;
8450;SDS011;4262;50.980;13.892;2023-02-21T14:22:48;14.17;;;6.20;;
8450;SDS011;4262;50.980;13.892;2023-02-21T14:25:19;14.40;;;6.10;;
8450;SDS011;4262;50.980;13.892;2023-02-21T14:27:48;14.50;;;7.13;;
8450;SDS011;4262;50.980;13.892;2023-02-21T14:30:28;15.57;;;7.40;;
8450;SDS011;4262;50.980;13.892;2023-02-21T14:32:59;13.90;;;6.70;;
8450;SDS011;4262;50.980;13.892;2023-02-21T14:35:34;12.87;;;7.40;;
8450;SDS011;4262;50.980;13.892;2023-02-21T14:38:14;12.80;;;5.97;;
8450;SDS011;4262;50.980;13.892;2023-02-21T14:40:47;14.20;;;7.67;;
8450;SDS011;4262;50.980;13.892;2023-02-21T14:43:29;14.97;;;6.60;;
8450;SDS011;4262;50.980;13.892;2023-02-21T14:46:28;15.80;;;7.60;;
8450;SDS011;4262;50.980;13.892;2023-02-21T14:49:14;14.80;;;6.63;;
8450;SDS011;4262;50.980;13.892;2023-02-21T14:55:21;13.90;;;6.60;;
8450;SDS011;4262;50.980;13.892;2023-02-21T14:58:25;16.10;;;7.57;;
8450;SDS011;4262;50.980;13.892;2023-02-21T15:01:05;15.23;;;6.67;;
8450;SDS011;4262;50.980;13.892;2023-02-21T15:03:40;14.07;;;6.40;;
8450;SDS011;4262;50.980;13.892;2023-02-21T15:06:14;16.00;;;7.33;;
8450;SDS011;4262;50.980;13.892;2023-02-21T15:08:45;13.73;;;6.77;;
8450;SDS011;4262;50.980;13.892;2023-02-21T15:11:18;13.47;;;6.93;;
8450;SDS011;4262;50.980;13.892;2023-02-21T15:16:42;15.10;;;7.10;;
8450;SDS011;4262;50.980;13.892;2023-02-21T15:19:18;15.77;;;7.20;;
8450;SDS011;4262;50.980;13.892;2023-02-21T15:21:46;14.07;;;7.03;;
8450;SDS011;4262;50.980;13.892;2023-02-21T15:24:14;13.33;;;6.60;;
8450;SDS011;4262;50.980;13.892;2023-02-21T15:26:43;17.13;;;6.13;;
8450;SDS011;4262;50.980;13.892;2023-02-21T15:29:12;15.07;;;6.47;;
8450;SDS011;4262;50.980;13.892;2023-02-21T15:31:40;11.07;;;4.90;;
8450;SDS011;4262;50.980;13.892;2023-02-21T15:34:13;13.97;;;6.60;;
8450;SDS011;4262;50.980;13.892;2023-02-21T15:36:44;12.57;;;6.10;;
8450;SDS011;4262;50.980;13.892;2023-02-21T15:39:15;16.77;;;6.00;;
8450;SDS011;4262;50.980;13.892;2023-02-21T15:41:47;14.60;;;5.83;;
8450;SDS011;4262;50.980;13.892;2023-02-21T15:44:19;12.23;;;6.33;;
8450;SDS011;4262;50.980;13.892;2023-02-21T15:46:52;20.53;;;6.47;;
8450;SDS011;4262;50.980;13.892;2023-02-21T15:49:23;15.20;;;6.70;;
8450;SDS011;4262;50.980;13.892;2023-02-21T15:51:55;18.53;;;6.63;;
8450;SDS011;4262;50.980;13.892;2023-02-21T15:54:23;14.97;;;6.30;;
8450;SDS011;4262;50.980;13.892;2023-02-21T15:57:01;16.03;;;6.07;;
8450;SDS011;4262;50.980;13.892;2023-02-21T15:59:48;12.17;;;6.07;;
8450;SDS011;4262;50.980;13.892;2023-02-21T16:02:22;14.77;;;6.60;;
8450;SDS011;4262;50.980;13.892;2023-02-21T16:04:53;12.63;;;6.00;;
8450;SDS011;4262;50.980;13.892;2023-02-21T16:07:22;12.97;;;5.60;;
8450;SDS011;4262;50.980;13.892;2023-02-21T16:09:57;12.20;;;6.60;;
8450;SDS011;4262;50.980;13.892;2023-02-21T16:12:35;15.47;;;6.60;;
8450;SDS011;4262;50.980;13.892;2023-02-21T16:15:32;12.60;;;5.63;;
8450;SDS011;4262;50.980;13.892;2023-02-21T16:18:02;13.57;;;5.33;;
8450;SDS011;4262;50.980;13.892;2023-02-21T16:20:33;19.10;;;6.73;;
8450;SDS011;4262;50.980;13.892;2023-02-21T16:23:12;16.33;;;6.17;;
8450;SDS011;4262;50.980;13.892;2023-02-21T16:25:58;16.47;;;7.10;;
8450;SDS011;4262;50.980;13.892;2023-02-21T16:28:27;15.63;;;6.50;;
8450;SDS011;4262;50.980;13.892;2023-02-21T16:30:55;13.20;;;6.17;;
8450;SDS011;4262;50.980;13.892;2023-02-21T16:33:25;14.83;;;6.77;;
8450;SDS011;4262;50.980;13.892;2023-02-21T16:35:52;12.07;;;5.80;;
8450;SDS011;4262;50.980;13.892;2023-02-21T16:38:21;14.50;;;6.90;;
8450;SDS011;4262;50.980;13.892;2023-02-21T16:40:50;13.73;;;7.30;;
8450;SDS011;4262;50.980;13.892;2023-02-21T16:43:19;16.20;;;7.57;;
8450;SDS011;4262;50.980;13.892;2023-02-21T16:45:47;16.10;;;7.63;;
8450;SDS011;4262;50.980;13.892;2023-02-21T16:48:17;14.40;;;5.80;;
8450;SDS011;4262;50.980;13.892;2023-02-21T16:50:46;17.10;;;8.17;;
8450;SDS011;4262;50.980;13.892;2023-02-21T16:53:14;15.87;;;7.20;;
8450;SDS011;4262;50.980;13.892;2023-02-21T16:55:43;19.37;;;10.23;;
8450;SDS011;4262;50.980;13.892;2023-02-21T16:58:16;14.33;;;7.30;;
8450;SDS011;4262;50.980;13.892;2023-02-21T17:00:48;13.60;;;5.90;;
8450;SDS011;4262;50.980;13.892;2023-02-21T17:03:16;14.30;;;6.73;;
8450;SDS011;4262;50.980;13.892;2023-02-21T17:05:43;13.97;;;6.83;;
8450;SDS011;4262;50.980;13.892;2023-02-21T17:08:11;13.83;;;6.00;;
8450;SDS011;4262;50.980;13.892;2023-02-21T17:10:37;12.90;;;6.23;;
8450;SDS011;4262;50.980;13.892;2023-02-21T17:13:05;16.87;;;7.83;;
8450;SDS011;4262;50.980;13.892;2023-02-21T17:15:32;15.83;;;7.30;;
8450;SDS011;4262;50.980;13.892;2023-02-21T17:17:59;14.77;;;6.70;;
8450;SDS011;4262;50.980;13.892;2023-02-21T17:20:26;13.43;;;6.23;;
8450;SDS011;4262;50.980;13.892;2023-02-21T17:22:53;12.37;;;6.33;;
8450;SDS011;4262;50.980;13.892;2023-02-21T17:25:22;19.87;;;6.60;;
8450;SDS011;4262;50.980;13.892;2023-02-21T17:27:50;13.87;;;6.90;;
8450;SDS011;4262;50.980;13.892;2023-02-21T17:30:19;13.70;;;7.07;;
8450;SDS011;4262;50.980;13.892;2023-02-21T17:32:47;13.60;;;6.50;;
8450;SDS011;4262;50.980;13.892;2023-02-21T17:35:14;17.73;;;6.87;;
8450;SDS011;4262;50.980;13.892;2023-02-21T17:37:43;12.13;;;6.50;;
8450;SDS011;4262;50.980;13.892;2023-02-21T17:40:12;14.90;;;6.97;;
8450;SDS011;4262;50.980;13.892;2023-02-21T17:42:39;13.57;;;7.00;;
8450;SDS011;4262;50.980;13.892;2023-02-21T17:45:09;17.67;;;7.20;;
8450;SDS011;4262;50.980;13.892;2023-02-21T17:47:38;18.33;;;8.00;;
8450;SDS011;4262;50.980;13.892;2023-02-21T17:50:05;17.10;;;7.37;;
8450;SDS011;4262;50.980;13.892;2023-02-21T17:52:32;13.93;;;6.10;;
8450;SDS011;4262;50.980;13.892;2023-02-21T17:54:59;13.50;;;6.50;;
8450;SDS011;4262;50.980;13.892;2023-02-21T17:57:33;17.43;;;6.60;;
8450;SDS011;4262;50.980;13.892;2023-02-21T18:00:03;13.17;;;5.70;;
8450;SDS011;4262;50.980;13.892;2023-02-21T18:02:36;15.77;;;6.87;;
8450;SDS011;4262;50.980;13.892;2023-02-21T18:05:05;18.13;;;6.83;;
8450;SDS011;4262;50.980;13.892;2023-02-21T18:07:35;14.03;;;7.10;;
8450;SDS011;4262;50.980;13.892;2023-02-21T18:10:02;15.23;;;7.80;;
8450;SDS011;4262;50.980;13.892;2023-02-21T18:12:30;11.90;;;6.03;;
8450;SDS011;4262;50.980;13.892;2023-02-21T18:15:00;14.93;;;6.83;;
8450;SDS011;4262;50.980;13.892;2023-02-21T18:17:28;15.60;;;7.70;;
8450;SDS011;4262;50.980;13.892;2023-02-21T18:19:56;17.90;;;8.50;;
8450;SDS011;4262;50.980;13.892;2023-02-21T18:22:23;14.53;;;6.33;;
8450;SDS011;4262;50.980;13.892;2023-02-21T18:24:50;16.37;;;7.37;;
8450;SDS011;4262;50.980;13.892;2023-02-21T18:27:18;14.47;;;6.33;;
8450;SDS011;4262;50.980;13.892;2023-02-21T18:29:45;13.87;;;6.23;;
8450;SDS011;4262;50.980;13.892;2023-02-21T18:32:12;14.20;;;6.07;;
8450;SDS011;4262;50.980;13.892;2023-02-21T18:34:38;15.53;;;6.10;;
8450;SDS011;4262;50.980;13.892;2023-02-21T18:37:08;12.53;;;6.00;;
8450;SDS011;4262;50.980;13.892;2023-02-21T18:39:35;13.87;;;6.30;;
8450;SDS011;4262;50.980;13.892;2023-02-21T18:42:02;12.00;;;5.60;;
8450;SDS011;4262;50.980;13.892;2023-02-21T18:44:29;12.60;;;6.13;;
8450;SDS011;4262;50.980;13.892;2023-02-21T18:46:56;12.03;;;6.03;;
8450;SDS011;4262;50.980;13.892;2023-02-21T18:49:23;13.80;;;6.40;;
8450;SDS011;4262;50.980;13.892;2023-02-21T18:51:51;12.90;;;7.30;;
8450;SDS011;4262;50.980;13.892;2023-02-21T18:54:20;14.97;;;5.80;;
8450;SDS011;4262;50.980;13.892;2023-02-21T18:56:47;13.57;;;6.43;;
8450;SDS011;4262;50.980;13.892;2023-02-21T18:59:17;15.43;;;7.17;;
8450;SDS011;4262;50.980;13.892;2023-02-21T19:01:46;15.30;;;6.57;;
8450;SDS011;4262;50.980;13.892;2023-02-21T19:04:14;14.40;;;6.20;;
8450;SDS011;4262;50.980;13.892;2023-02-21T19:06:40;15.20;;;5.87;;
8450;SDS011;4262;50.980;13.892;2023-02-21T19:09:08;13.93;;;5.97;;
8450;SDS011;4262;50.980;13.892;2023-02-21T19:11:37;14.73;;;7.47;;
8450;SDS011;4262;50.980;13.892;2023-02-21T19:14:05;16.80;;;6.87;;
8450;SDS011;4262;50.980;13.892;2023-02-21T19:16:32;14.80;;;7.63;;
8450;SDS011;4262;50.980;13.892;2023-02-21T19:19:00;21.73;;;11.50;;
8450;SDS011;4262;50.980;13.892;2023-02-21T19:21:27;24.50;;;11.57;;
8450;SDS011;4262;50.980;13.892;2023-02-21T19:23:54;18.80;;;9.30;;
8450;SDS011;4262;50.980;13.892;2023-02-21T19:26:21;24.63;;;9.00;;
8450;SDS011;4262;50.980;13.892;2023-02-21T19:28:49;20.43;;;9.43;;
8450;SDS011;4262;50.980;13.892;2023-02-21T19:31:16;16.57;;;8.23;;
8450;SDS011;4262;50.980;13.892;2023-02-21T19:33:43;22.20;;;11.27;;
8450;SDS011;4262;50.980;13.892;2023-02-21T19:36:10;19.30;;;8.60;;
8450;SDS011;4262;50.980;13.892;2023-02-21T19:38:37;15.10;;;8.00;;
8450;SDS011;4262;50.980;13.892;2023-02-21T19:41:04;20.07;;;11.20;;
8450;SDS011;4262;50.980;13.892;2023-02-21T19:43:32;14.27;;;7.30;;
8450;SDS011;4262;50.980;13.892;2023-02-21T19:46:01;14.13;;;7.60;;
8450;SDS011;4262;50.980;13.892;2023-02-21T19:48:29;13.93;;;6.60;;
8450;SDS011;4262;50.980;13.892;2023-02-21T19:50:56;15.33;;;6.70;;
8450;SDS011;4262;50.980;13.892;2023-02-21T19:53:23;16.90;;;7.60;;
8450;SDS011;4262;50.980;13.892;2023-02-21T19:55:50;14.83;;;7.10;;
8450;SDS011;4262;50.980;13.892;2023-02-21T19:58:16;14.03;;;6.30;;
8450;SDS011;4262;50.980;13.892;2023-02-21T20:00:44;11.37;;;6.10;;
8450;SDS011;4262;50.980;13.892;2023-02-21T20:03:12;14.63;;;6.23;;
8450;SDS011;4262;50.980;13.892;2023-02-21T20:05:39;16.90;;;7.57;;
8450;SDS011;4262;50.980;13.892;2023-02-21T20:08:06;16.57;;;8.77;;
8450;SDS011;4262;50.980;13.892;2023-02-21T20:10:33;13.33;;;7.27;;